IS08 weather

Curless Airport
Summum, Illinois, United States

Public forecast

Using degrees Fahrenheit for public forecast. Weather courtesy of forecast.io.

Closest aviation weather report (METAR) to Curless Airport

Closest report is Macomb Municipal Airport, 24.5 nm (45.4 km) NW. Retrieved 2020/06/04 10:55 UTC (8 minutes ago):

KMQB 041055Z AUTO 16004KT 10SM CLR 19/18 A2983 RMK AO2 T01910180

Closest aviation forecast (TAF) to Curless Airport

Closest forecast is General Wayne A. Downing Peoria International Airport, 34.6 nm (64.1 km) NE. Retrieved 2020/06/04 06:42 UTC (4 hours ago):

TAF KPIA 040539Z 0406/0506 VRB03KT P6SM OVC120 FM040900 VRB03KT 4SM BR SCT120 OVC250 FM041300 26006KT P6SM SCT120 BKN250 FM042300 VRB03KT P6SM SCT250